Time,TemperatureF,DewpointF,PressureIn,WindDirection,WindDirectionDegrees,WindSpeedMPH,WindSpeedGustMPH,Humidity,HourlyPrecipIn,Conditions,Clouds,dailyrainin,SoftwareType,DateUTC
2013-12-09 00:01:00,26.0,24.8,30.46,ESE,116,4.6,4.6,95,0.00,OVC,,0.00,WeatherDisplay:10.37,2013-12-09 05:01:00,
2013-12-09 00:02:00,26.0,24.8,30.46,ESE,116,4.6,4.6,95,0.00,OVC,,0.00,WeatherDisplay:10.37,2013-12-09 05:02:00,
2013-12-09 00:04:00,25.8,24.6,30.46,SSE,161,4.7,4.7,95,0.00,OVC,,0.00,WeatherDisplay:10.37,2013-12-09 05:04:00,
2013-12-09 00:09:00,25.9,24.7,30.46,ESE,112,5.8,5.8,95,0.00,OVC,,0.00,WeatherDisplay:10.37,2013-12-09 05:09:00,
2013-12-09 00:13:00,25.7,24.8,30.46,ESE,113,3.0,6.0,96,0.00,OVC,,0.00,WeatherDisplay:10.37,2013-12-09 05:13:00,
2013-12-09 00:16:00,25.7,24.8,30.46,SE,126,4.6,4.6,96,0.00,OVC,,0.00,WeatherDisplay:10.37,2013-12-09 05:16:00,
2013-12-09 00:21:00,25.8,24.9,30.46,ESE,117,4.0,4.0,96,0.00,OVC,,0.00,WeatherDisplay:10.37,2013-12-09 05:21:00,
2013-12-09 00:26:00,25.8,24.9,30.46,SE,128,3.5,3.5,96,0.00,OVC,,0.00,WeatherDisplay:10.37,2013-12-09 05:26:00,
2013-12-09 00:28:00,25.8,24.8,30.46,ESE,113,0.0,5.0,96,0.00,OVC,,0.00,WeatherDisplay:10.37,2013-12-09 05:28:00,
2013-12-09 00:33:00,25.6,24.7,30.45,SE,133,4.2,4.2,96,0.00,-SN,,0.00,WeatherDisplay:10.37,2013-12-09 05:33:00,
2013-12-09 00:38:00,25.8,24.9,30.44,ESE,110,4.6,4.6,96,0.00,-SN,,0.00,WeatherDisplay:10.37,2013-12-09 05:38:00,
2013-12-09 00:43:00,25.8,24.9,30.44,East,96,2.3,2.3,96,0.00,-SN,,0.00,WeatherDisplay:10.37,2013-12-09 05:43:00,
2013-12-09 00:48:00,25.6,24.9,30.43,East,96,0.0,0.0,97,0.00,-SN,,0.00,WeatherDisplay:10.37,2013-12-09 05:48:00,
2013-12-09 00:53:00,25.7,25.0,30.43,East,96,0.0,0.0,97,0.00,-SN,,0.00,WeatherDisplay:10.37,2013-12-09 05:53:00,
2013-12-09 00:58:00,25.7,25.0,30.43,SE,141,4.6,4.6,97,0.00,-SN,,0.00,WeatherDisplay:10.37,2013-12-09 05:58:00,
2013-12-09 01:03:00,25.8,25.1,30.43,ESE,123,4.8,4.8,97,0.00,OVC,,0.00,WeatherDisplay:10.37,2013-12-09 06:03:00,
2013-12-09 01:08:00,25.5,24.8,30.42,ESE,109,5.0,5.0,97,0.00,OVC,,0.00,WeatherDisplay:10.37,2013-12-09 06:08:00,
2013-12-09 01:13:00,25.4,24.7,30.42,ESE,107,5.8,5.8,97,0.00,OVC,,0.00,WeatherDisplay:10.37,2013-12-09 06:13:00,
2013-12-09 01:18:00,25.6,24.9,30.42,ESE,121,4.6,4.6,97,0.00,OVC,,0.00,WeatherDisplay:10.37,2013-12-09 06:18:00,
2013-12-09 01:23:00,25.6,24.9,30.42,ESE,117,0.0,0.0,97,0.00,OVC,,0.00,WeatherDisplay:10.37,2013-12-09 06:23:00,
2013-12-09 01:28:00,25.6,24.9,30.42,East,97,4.6,4.6,97,0.00,OVC,,0.00,WeatherDisplay:10.37,2013-12-09 06:28:00,
2013-12-09 01:33:00,25.6,24.9,30.42,East,100,4.8,4.8,97,0.00,OVC,,0.00,WeatherDisplay:10.37,2013-12-09 06:33:00,
2013-12-09 01:38:00,25.6,24.9,30.42,SE,130,6.5,6.5,97,0.00,OVC,,0.00,WeatherDisplay:10.37,2013-12-09 06:38:00,
2013-12-09 01:43:00,25.7,25.0,30.42,ESE,117,4.6,4.6,97,0.00,OVC,,0.00,WeatherDisplay:10.37,2013-12-09 06:43:00,
2013-12-09 01:48:00,25.9,25.2,30.42,East,96,4.6,4.6,97,0.00,OVC,,0.00,WeatherDisplay:10.37,2013-12-09 06:48:00,
2013-12-09 01:53:00,25.7,25.0,30.41,ESE,116,5.0,5.0,97,0.00,OVC,,0.00,WeatherDisplay:10.37,2013-12-09 06:53:00,
2013-12-09 01:58:00,25.8,25.1,30.41,ESE,120,4.6,4.6,97,0.00,OVC,,0.00,WeatherDisplay:10.37,2013-12-09 06:58:00,
2013-12-09 02:03:00,25.7,25.0,30.41,SE,133,4.6,4.6,97,0.00,OVC,,0.00,WeatherDisplay:10.37,2013-12-09 07:03:00,
2013-12-09 02:08:00,25.7,25.0,30.41,SE,136,11.6,11.6,97,0.00,OVC,,0.00,WeatherDisplay:10.37,2013-12-09 07:08:00,
2013-12-09 02:13:00,25.8,25.1,30.41,ESE,102,7.1,7.1,97,0.00,OVC,,0.00,WeatherDisplay:10.37,2013-12-09 07:13:00,
2013-12-09 02:18:00,25.8,25.1,30.41,SE,134,5.8,5.8,97,0.00,OVC,,0.00,WeatherDisplay:10.37,2013-12-09 07:18:00,
2013-12-09 02:23:00,25.8,25.1,30.41,ESE,116,10.4,10.4,97,0.00,OVC,,0.00,WeatherDisplay:10.37,2013-12-09 07:23:00,
2013-12-09 02:28:00,25.8,25.1,30.40,SE,138,6.2,6.2,97,0.00,OVC,,0.00,WeatherDisplay:10.37,2013-12-09 07:28:00,
2013-12-09 02:33:00,25.8,25.1,30.40,ESE,120,8.4,8.4,97,0.00,OVC,,0.00,WeatherDisplay:10.37,2013-12-09 07:33:00,
2013-12-09 02:38:00,25.6,24.9,30.40,SE,134,8.5,8.5,97,0.00,OVC,,0.00,WeatherDisplay:10.37,2013-12-09 07:38:00,
2013-12-09 02:43:00,25.7,25.0,30.40,ESE,123,10.8,10.8,97,0.00,OVC,,0.00,WeatherDisplay:10.37,2013-12-09 07:43:00,
2013-12-09 02:48:00,25.5,24.8,30.40,ESE,107,9.5,9.5,97,0.00,OVC,,0.00,WeatherDisplay:10.37,2013-12-09 07:48:00,
2013-12-09 02:53:00,25.4,24.7,30.40,ESE,109,9.6,9.6,97,0.00,OVC,,0.00,WeatherDisplay:10.37,2013-12-09 07:53:00,
2013-12-09 02:58:00,25.4,24.7,30.39,ESE,114,7.4,7.4,97,0.00,OVC,,0.00,WeatherDisplay:10.37,2013-12-09 07:58:00,
2013-12-09 03:03:00,25.7,25.0,30.39,ESE,114,5.8,5.8,97,0.00,OVC,,0.00,WeatherDisplay:10.37,2013-12-09 08:03:00,
2013-12-09 03:08:00,25.5,24.8,30.39,SE,143,0.0,0.0,97,0.00,OVC,,0.00,WeatherDisplay:10.37,2013-12-09 08:08:00,
2013-12-09 03:13:00,25.6,24.9,30.39,SSE,147,6.9,6.9,97,0.00,OVC,,0.00,WeatherDisplay:10.37,2013-12-09 08:13:00,
2013-12-09 03:19:00,25.5,24.8,30.39,ESE,109,7.3,7.3,97,0.00,OVC,,0.00,WeatherDisplay:10.37,2013-12-09 08:19:00,
2013-12-09 03:24:00,25.5,24.8,30.38,ESE,104,6.9,6.9,97,0.00,OVC,,0.00,WeatherDisplay:10.37,2013-12-09 08:24:00,
2013-12-09 03:29:00,25.6,24.9,30.38,ESE,116,8.1,8.1,97,0.00,OVC,,0.00,WeatherDisplay:10.37,2013-12-09 08:29:00,
2013-12-09 03:34:00,25.7,25.0,30.38,East,99,4.6,0.0,97,0.00,OVC,,0.00,WeatherDisplay:10.37,2013-12-09 08:34:00,
2013-12-09 03:39:00,25.8,25.1,30.38,East,99,0.0,0.0,97,0.00,OVC,,0.00,WeatherDisplay:10.37,2013-12-09 08:39:00,
2013-12-09 03:44:00,25.7,25.0,30.37,SE,144,9.2,9.2,97,0.00,OVC,,0.00,WeatherDisplay:10.37,2013-12-09 08:44:00,
2013-12-09 03:49:00,25.8,25.1,30.37,East,90,5.8,0.0,97,0.00,OVC,,0.00,WeatherDisplay:10.37,2013-12-09 08:49:00,
2013-12-09 03:54:00,25.8,25.1,30.36,East,92,0.0,0.0,97,0.00,OVC,,0.00,WeatherDisplay:10.37,2013-12-09 08:54:00,
2013-12-09 03:59:00,25.8,25.1,30.36,SE,128,8.2,8.2,97,0.00,OVC,,0.00,WeatherDisplay:10.37,2013-12-09 08:59:00,
2013-12-09 04:04:00,25.9,25.2,30.36,SSE,154,8.4,8.4,97,0.00,OVC,,0.00,WeatherDisplay:10.37,2013-12-09 09:04:00,
2013-12-09 04:09:00,25.8,25.1,30.35,ESE,109,10.4,10.4,97,0.00,OVC,,0.00,WeatherDisplay:10.37,2013-12-09 09:09:00,
2013-12-09 04:10:00,25.8,25.1,30.35,ESE,109,10.4,10.4,97,0.00,OVC,,0.00,WeatherDisplay:10.37,2013-12-09 09:10:00,
2013-12-09 04:15:00,25.9,25.2,30.35,SE,126,8.1,8.1,97,0.00,OVC,,0.00,WeatherDisplay:10.37,2013-12-09 09:15:00,
2013-12-09 04:20:00,25.9,25.2,30.35,ESE,121,9.2,9.2,97,0.00,OVC,,0.00,WeatherDisplay:10.37,2013-12-09 09:20:00,
2013-12-09 04:25:00,25.8,25.1,30.35,ESE,104,7.5,7.5,97,0.00,OVC,,0.00,WeatherDisplay:10.37,2013-12-09 09:25:00,
2013-12-09 04:30:00,25.9,25.2,30.34,ESE,121,9.4,9.4,97,0.00,OVC,,0.00,WeatherDisplay:10.37,2013-12-09 09:30:00,
2013-12-09 04:35:00,26.0,25.3,30.35,ESE,117,6.0,6.0,97,0.00,OVC,,0.00,WeatherDisplay:10.37,2013-12-09 09:35:00,
2013-12-09 04:40:00,26.1,25.4,30.34,ESE,117,6.9,6.9,97,0.00,OVC,,0.00,WeatherDisplay:10.37,2013-12-09 09:40:00,
2013-12-09 04:45:00,26.1,25.4,30.34,SE,126,6.7,6.7,97,0.00,OVC,,0.00,WeatherDisplay:10.37,2013-12-09 09:45:00,
2013-12-09 04:50:00,26.1,25.4,30.34,East,85,10.4,10.4,97,0.00,OVC,,0.00,WeatherDisplay:10.37,2013-12-09 09:50:00,
2013-12-09 04:55:00,26.0,25.3,30.33,SE,127,12.7,12.7,97,0.00,OVC,,0.00,WeatherDisplay:10.37,2013-12-09 09:55:00,
2013-12-09 05:00:00,25.9,25.2,30.33,ESE,103,9.2,9.2,97,0.00,OVC,,0.00,WeatherDisplay:10.37,2013-12-09 10:00:00,
2013-12-09 05:05:00,25.8,25.1,30.33,ESE,114,9.4,9.4,97,0.00,OVC,,0.00,WeatherDisplay:10.37,2013-12-09 10:05:00,
2013-12-09 05:10:00,26.0,25.3,30.32,ESE,103,8.6,8.6,97,0.00,OVC,,0.00,WeatherDisplay:10.37,2013-12-09 10:10:00,
2013-12-09 05:15:00,26.0,25.3,30.32,East,92,9.2,9.2,97,0.00,OVC,,0.00,WeatherDisplay:10.37,2013-12-09 10:15:00,
2013-12-09 05:20:00,26.0,25.3,30.32,East,97,8.3,8.3,97,0.00,OVC,,0.00,WeatherDisplay:10.37,2013-12-09 10:20:00,
2013-12-09 05:25:00,25.9,25.2,30.32,NE,56,8.1,8.1,97,0.00,OVC,,0.00,WeatherDisplay:10.37,2013-12-09 10:25:00,
2013-12-09 05:30:00,26.0,25.3,30.31,ESE,109,9.2,9.2,97,0.00,OVC,,0.00,WeatherDisplay:10.37,2013-12-09 10:30:00,
2013-12-09 05:35:00,26.1,25.4,30.31,ESE,113,8.1,8.1,97,0.00,OVC,,0.00,WeatherDisplay:10.37,2013-12-09 10:35:00,
2013-12-09 05:40:00,26.1,25.4,30.30,East,93,10.6,10.6,97,0.00,OVC,,0.00,WeatherDisplay:10.37,2013-12-09 10:40:00,
2013-12-09 05:45:00,26.1,25.4,30.30,ESE,112,8.1,8.1,97,0.00,OVC,,0.00,WeatherDisplay:10.37,2013-12-09 10:45:00,
2013-12-09 05:50:00,26.3,25.6,30.31,ESE,110,8.4,8.4,97,0.00,OVC,,0.00,WeatherDisplay:10.37,2013-12-09 10:50:00,
2013-12-09 05:55:00,26.5,25.8,30.30,East,100,8.1,8.1,97,0.00,OVC,,0.00,WeatherDisplay:10.37,2013-12-09 10:55:00,
2013-12-09 06:00:00,26.7,26.0,30.30,ESE,103,8.0,8.0,97,0.00,OVC,,0.00,WeatherDisplay:10.37,2013-12-09 11:00:00,
2013-12-09 06:02:00,26.7,26.0,30.30,SE,140,9.2,9.2,97,0.00,OVC,,0.00,WeatherDisplay:10.37,2013-12-09 11:02:00,
2013-12-09 06:07:00,27.0,26.3,30.29,SE,137,9.2,9.2,97,0.00,OVC,,0.00,WeatherDisplay:10.37,2013-12-09 11:07:00,
2013-12-09 06:12:00,26.9,26.2,30.28,SSE,147,7.1,7.1,97,0.00,OVC,,0.00,WeatherDisplay:10.37,2013-12-09 11:12:00,
2013-12-09 06:17:00,27.0,26.3,30.27,SE,128,2.3,0.0,97,0.00,OVC,,0.00,WeatherDisplay:10.37,2013-12-09 11:17:00,
2013-12-09 06:22:00,27.2,26.8,30.26,SE,128,0.0,0.0,98,0.00,OVC,,0.00,WeatherDisplay:10.37,2013-12-09 11:22:00,
2013-12-09 06:27:00,27.1,26.7,30.26,ESE,117,8.1,8.1,98,0.00,OVC,,0.00,WeatherDisplay:10.37,2013-12-09 11:27:00,
2013-12-09 06:32:00,27.2,26.5,30.28,SE,134,8.1,8.1,97,0.00,OVC,,0.00,WeatherDisplay:10.37,2013-12-09 11:32:00,
2013-12-09 06:37:00,27.2,26.5,30.27,ESE,114,12.6,12.6,97,0.00,OVC,,0.00,WeatherDisplay:10.37,2013-12-09 11:37:00,
2013-12-09 06:42:00,27.4,26.7,30.27,ESE,113,0.0,0.0,97,0.00,OVC,,0.00,WeatherDisplay:10.37,2013-12-09 11:42:00,
2013-12-09 06:47:00,27.5,27.0,30.27,SSE,155,4.6,4.6,98,0.00,OVC,,0.00,WeatherDisplay:10.37,2013-12-09 11:47:00,
2013-12-09 06:52:00,27.7,27.0,30.26,SSE,158,7.5,7.5,97,0.00,OVC,,0.00,WeatherDisplay:10.37,2013-12-09 11:52:00,
2013-12-09 06:57:00,27.9,27.2,30.27,ENE,65,5.6,5.6,97,0.00,OVC,,0.00,WeatherDisplay:10.37,2013-12-09 11:57:00,
2013-12-09 07:02:00,28.1,27.4,30.26,SE,136,0.0,0.0,97,0.00,OVC,,0.00,WeatherDisplay:10.37,2013-12-09 12:02:00,
2013-12-09 07:07:00,28.2,27.7,30.26,SE,131,5.8,5.8,98,0.00,OVC,,0.00,WeatherDisplay:10.37,2013-12-09 12:07:00,
2013-12-09 07:12:00,28.2,27.5,30.25,ESE,117,9.6,9.6,97,0.06,RA,,0.06,WeatherDisplay:10.37,2013-12-09 12:12:00,
2013-12-09 07:17:00,28.6,28.1,30.26,East,100,5.0,5.0,98,0.06,RA,,0.06,WeatherDisplay:10.37,2013-12-09 12:17:00,
2013-12-09 07:22:00,28.9,28.4,30.26,SE,124,2.3,0.0,98,0.07,RA,,0.07,WeatherDisplay:10.37,2013-12-09 12:22:00,
2013-12-09 07:27:00,28.7,28.0,30.25,East,100,10.4,10.4,97,0.08,RA,,0.08,WeatherDisplay:10.37,2013-12-09 12:27:00,
2013-12-09 07:32:00,28.5,27.8,30.25,SE,134,8.1,8.1,97,0.08,RA,,0.10,WeatherDisplay:10.37,2013-12-09 12:32:00,
2013-12-09 07:37:00,28.8,28.1,30.24,ESE,113,9.2,9.2,97,0.10,RA,,0.10,WeatherDisplay:10.37,2013-12-09 12:37:00,
2013-12-09 07:42:00,28.8,28.1,30.24,SSE,147,0.0,0.0,97,0.11,RA,,0.11,WeatherDisplay:10.37,2013-12-09 12:42:00,
2013-12-09 07:47:00,28.7,28.0,30.24,ESE,114,6.9,6.9,97,0.11,RA,,0.11,WeatherDisplay:10.37,2013-12-09 12:47:00,
2013-12-09 07:52:00,28.8,28.3,30.23,SE,127,4.8,4.8,98,0.12,RA,,0.12,WeatherDisplay:10.37,2013-12-09 12:52:00,
2013-12-09 07:57:00,28.8,28.3,30.24,SSE,151,0.0,0.0,98,0.13,RA,,0.13,WeatherDisplay:10.37,2013-12-09 12:57:00,
2013-12-09 08:02:00,28.8,28.3,30.24,ESE,104,5.8,5.8,98,0.13,RA,,0.13,WeatherDisplay:10.37,2013-12-09 13:02:00,
2013-12-09 08:07:00,28.9,28.4,30.22,SSE,152,0.0,0.0,98,0.14,RA,,0.14,WeatherDisplay:10.37,2013-12-09 13:07:00,
2013-12-09 08:12:00,29.2,28.5,30.22,SE,145,3.5,0.0,97,0.10,RA,,0.16,WeatherDisplay:10.37,2013-12-09 13:12:00,
2013-12-09 08:17:00,29.0,28.3,30.22,SE,145,0.0,0.0,97,0.11,RA,,0.17,WeatherDisplay:10.37,2013-12-09 13:17:00,
2013-12-09 08:22:00,29.1,28.4,30.22,SE,145,0.0,0.0,97,0.11,RA,,0.18,WeatherDisplay:10.37,2013-12-09 13:22:00,
2013-12-09 08:27:00,29.2,28.5,30.22,ESE,109,4.7,4.7,97,0.10,RA,,0.18,WeatherDisplay:10.37,2013-12-09 13:27:00,
2013-12-09 08:32:00,29.2,28.5,30.22,SSE,155,4.6,4.6,97,0.11,RA,,0.19,WeatherDisplay:10.37,2013-12-09 13:32:00,
2013-12-09 08:37:00,29.3,28.6,30.22,ESE,116,2.8,2.8,97,0.10,RA,,0.20,WeatherDisplay:10.37,2013-12-09 13:37:00,
2013-12-09 08:42:00,29.3,28.6,30.22,SE,138,0.0,0.0,97,0.10,RA,,0.20,WeatherDisplay:10.37,2013-12-09 13:42:00,
2013-12-09 08:47:00,29.5,28.8,30.21,SE,138,0.0,0.0,97,0.10,RA,,0.20,WeatherDisplay:10.37,2013-12-09 13:47:00,
2013-12-09 08:52:00,29.4,28.9,30.20,SE,134,5.3,5.3,98,0.10,RA,,0.22,WeatherDisplay:10.37,2013-12-09 13:52:00,
2013-12-09 08:57:00,29.4,28.9,30.20,East,100,6.9,6.9,98,0.08,RA,,0.22,WeatherDisplay:10.37,2013-12-09 13:57:00,
2013-12-09 09:02:00,29.7,29.2,30.21,SE,138,0.0,0.0,98,0.08,OVC,,0.22,WeatherDisplay:10.37,2013-12-09 14:02:00,
2013-12-09 09:07:00,29.7,29.2,30.19,ESE,106,5.8,5.8,98,0.07,OVC,,0.22,WeatherDisplay:10.37,2013-12-09 14:07:00,
2013-12-09 09:12:00,29.7,29.2,30.20,East,90,6.2,6.2,98,0.06,OVC,,0.22,WeatherDisplay:10.37,2013-12-09 14:12:00,
2013-12-09 09:17:00,29.6,29.1,30.19,East,95,6.6,6.6,98,0.05,OVC,,0.22,WeatherDisplay:10.37,2013-12-09 14:17:00,
2013-12-09 09:22:00,29.9,29.4,30.18,ESE,116,5.1,5.1,98,0.04,OVC,,0.22,WeatherDisplay:10.37,2013-12-09 14:22:00,
2013-12-09 09:27:00,30.0,29.5,30.18,East,89,5.2,5.2,98,0.04,OVC,,0.22,WeatherDisplay:10.37,2013-12-09 14:27:00,
2013-12-09 09:32:00,30.1,29.6,30.19,East,100,3.5,3.5,98,0.02,OVC,,0.22,WeatherDisplay:10.37,2013-12-09 14:32:00,
2013-12-09 09:37:00,30.1,29.6,30.17,ESE,112,4.6,4.6,98,0.02,OVC,,0.22,WeatherDisplay:10.37,2013-12-09 14:37:00,
2013-12-09 09:42:00,30.1,29.6,30.18,SE,131,4.7,4.7,98,0.01,OVC,,0.22,WeatherDisplay:10.37,2013-12-09 14:42:00,
2013-12-09 09:47:00,30.3,29.8,30.19,East,92,8.1,8.1,98,0.01,OVC,,0.22,WeatherDisplay:10.37,2013-12-09 14:47:00,
2013-12-09 09:53:00,30.3,29.8,30.16,ESE,104,5.0,7.0,98,0.00,OVC,,0.22,WeatherDisplay:10.37,2013-12-09 14:53:00,
2013-12-09 09:58:00,30.5,30.0,30.18,East,85,0.0,3.0,98,0.00,OVC,,0.22,WeatherDisplay:10.37,2013-12-09 14:58:00,
2013-12-09 10:03:00,30.5,30.0,30.17,SE,133,5.8,5.8,98,0.00,OVC,,0.22,WeatherDisplay:10.37,2013-12-09 15:03:00,
2013-12-09 10:08:00,30.7,30.2,30.16,ESE,117,0.0,0.0,98,0.00,OVC,,0.22,WeatherDisplay:10.37,2013-12-09 15:08:00,
2013-12-09 10:13:00,30.7,30.2,30.17,ESE,117,0.0,0.0,98,0.00,OVC,,0.22,WeatherDisplay:10.37,2013-12-09 15:13:00,
2013-12-09 10:18:00,31.0,30.5,30.17,ESE,107,3.7,3.7,98,0.00,OVC,,0.22,WeatherDisplay:10.37,2013-12-09 15:18:00,
2013-12-09 10:23:00,31.0,30.5,30.16,ESE,121,3.5,3.5,98,0.00,OVC,,0.22,WeatherDisplay:10.37,2013-12-09 15:23:00,
2013-12-09 10:28:00,31.1,30.6,30.15,ESE,123,4.0,4.0,98,0.00,OVC,,0.22,WeatherDisplay:10.37,2013-12-09 15:28:00,
2013-12-09 10:33:00,31.1,30.6,30.16,ESE,112,2.7,2.7,98,0.00,OVC,,0.22,WeatherDisplay:10.37,2013-12-09 15:33:00,
2013-12-09 10:38:00,31.0,30.5,30.15,SE,127,2.5,2.5,98,0.00,OVC,,0.22,WeatherDisplay:10.37,2013-12-09 15:38:00,
2013-12-09 10:43:00,31.5,31.0,30.14,ESE,112,2.3,2.3,98,0.00,OVC,,0.22,WeatherDisplay:10.37,2013-12-09 15:43:00,
2013-12-09 10:48:00,31.6,31.1,30.13,ESE,120,3.8,3.8,98,0.01,RA,,0.23,WeatherDisplay:10.37,2013-12-09 15:48:00,
2013-12-09 10:53:00,31.8,31.3,30.12,SE,131,2.7,2.7,98,0.01,RA,,0.23,WeatherDisplay:10.37,2013-12-09 15:53:00,
2013-12-09 10:58:00,31.8,31.3,30.13,SE,140,4.7,4.7,98,0.01,OVC,,0.23,WeatherDisplay:10.37,2013-12-09 15:58:00,
2013-12-09 11:03:00,32.0,31.5,30.11,SE,128,3.5,3.5,98,0.01,OVC,,0.23,WeatherDisplay:10.37,2013-12-09 16:03:00,
2013-12-09 11:08:00,31.9,31.4,30.11,East,99,0.0,0.0,98,0.01,OVC,,0.23,WeatherDisplay:10.37,2013-12-09 16:08:00,
2013-12-09 11:13:00,32.1,31.6,30.11,East,90,2.9,2.9,98,0.01,OVC,,0.23,WeatherDisplay:10.37,2013-12-09 16:13:00,
2013-12-09 11:18:00,32.1,31.6,30.10,ESE,107,3.5,3.5,98,0.01,OVC,,0.23,WeatherDisplay:10.37,2013-12-09 16:18:00,
2013-12-09 11:23:00,32.3,31.8,30.10,ESE,110,5.8,5.8,98,0.01,OVC,,0.23,WeatherDisplay:10.37,2013-12-09 16:23:00,
2013-12-09 11:28:00,32.1,31.6,30.09,SE,137,3.5,3.5,98,0.01,OVC,,0.23,WeatherDisplay:10.37,2013-12-09 16:28:00,
2013-12-09 11:33:00,32.3,31.8,30.09,SE,143,4.6,4.6,98,0.01,OVC,,0.23,WeatherDisplay:10.37,2013-12-09 16:33:00,
2013-12-09 11:38:00,32.5,32.0,30.08,SSE,161,0.0,0.0,98,0.01,OVC,,0.23,WeatherDisplay:10.37,2013-12-09 16:38:00,
2013-12-09 11:43:00,32.3,31.8,30.08,SSE,157,2.5,2.5,98,0.01,OVC,,0.23,WeatherDisplay:10.37,2013-12-09 16:43:00,
2013-12-09 11:48:00,32.4,31.9,30.07,SE,128,3.8,3.8,98,0.00,OVC,,0.23,WeatherDisplay:10.37,2013-12-09 16:48:00,
2013-12-09 11:53:00,32.4,31.9,30.07,SSW,193,6.2,6.2,98,0.00,OVC,,0.23,WeatherDisplay:10.37,2013-12-09 16:53:00,
2013-12-09 11:58:00,32.5,32.0,30.06,ESE,117,0.0,0.0,98,0.00,OVC,,0.23,WeatherDisplay:10.37,2013-12-09 16:58:00,
2013-12-09 12:03:00,32.7,32.2,30.05,SSE,164,0.0,0.0,98,0.00,OVC,,0.23,WeatherDisplay:10.37,2013-12-09 17:03:00,
2013-12-09 12:08:00,32.8,32.3,30.05,SSE,164,0.0,0.0,98,0.00,OVC,,0.23,WeatherDisplay:10.37,2013-12-09 17:08:00,
2013-12-09 12:13:00,32.8,32.3,30.04,SSE,164,0.0,0.0,98,0.00,OVC,,0.23,WeatherDisplay:10.37,2013-12-09 17:13:00,
2013-12-09 12:18:00,32.8,32.3,30.03,SSE,164,0.0,0.0,98,0.00,OVC,,0.23,WeatherDisplay:10.37,2013-12-09 17:18:00,
2013-12-09 12:23:00,32.9,32.4,30.04,SSE,164,0.0,0.0,98,0.00,OVC,,0.23,WeatherDisplay:10.37,2013-12-09 17:23:00,
2013-12-09 12:28:00,32.7,32.2,30.03,SSE,164,0.0,0.0,98,0.00,OVC,,0.23,WeatherDisplay:10.37,2013-12-09 17:28:00,
2013-12-09 12:33:00,32.9,32.4,30.03,East,92,1.2,0.0,98,0.00,OVC,,0.23,WeatherDisplay:10.37,2013-12-09 17:33:00,
2013-12-09 12:38:00,32.7,32.2,30.01,ESE,121,0.0,0.0,98,0.00,OVC,,0.23,WeatherDisplay:10.37,2013-12-09 17:38:00,
2013-12-09 12:43:00,32.8,32.3,30.01,ESE,121,0.0,0.0,98,0.00,OVC,,0.23,WeatherDisplay:10.37,2013-12-09 17:43:00,
2013-12-09 12:48:00,32.9,32.4,30.00,ESE,121,0.0,0.0,98,0.00,OVC,,0.23,WeatherDisplay:10.37,2013-12-09 17:48:00,
2013-12-09 12:53:00,33.1,32.6,30.01,ESE,121,0.0,0.0,98,0.00,OVC,,0.23,WeatherDisplay:10.37,2013-12-09 17:53:00,
2013-12-09 12:58:00,33.1,32.6,30.02,ESE,121,0.0,0.0,98,0.00,OVC,,0.23,WeatherDisplay:10.37,2013-12-09 17:58:00,
2013-12-09 13:03:00,33.0,32.5,30.03,ESE,121,0.0,0.0,98,0.00,OVC,,0.23,WeatherDisplay:10.37,2013-12-09 18:03:00,
2013-12-09 13:08:00,33.3,32.8,30.03,ESE,121,0.0,0.0,98,0.00,OVC,,0.23,WeatherDisplay:10.37,2013-12-09 18:08:00,
2013-12-09 13:13:00,33.5,33.0,30.02,ESE,121,0.0,0.0,98,0.00,OVC,,0.23,WeatherDisplay:10.37,2013-12-09 18:13:00,
2013-12-09 13:18:00,33.4,32.9,30.02,ESE,121,0.0,0.0,98,0.00,OVC,,0.23,WeatherDisplay:10.37,2013-12-09 18:18:00,
2013-12-09 13:23:00,33.4,32.9,30.01,ESE,121,0.0,0.0,98,0.00,OVC,,0.23,WeatherDisplay:10.37,2013-12-09 18:23:00,
2013-12-09 13:28:00,33.4,32.9,30.01,ESE,121,0.0,0.0,98,0.00,OVC,,0.23,WeatherDisplay:10.37,2013-12-09 18:28:00,
2013-12-09 13:33:00,33.3,32.8,30.00,ESE,121,0.0,0.0,98,0.00,OVC,,0.23,WeatherDisplay:10.37,2013-12-09 18:33:00,
2013-12-09 13:38:00,33.2,32.7,29.99,ESE,121,0.0,0.0,98,0.00,OVC,,0.23,WeatherDisplay:10.37,2013-12-09 18:38:00,
2013-12-09 13:43:00,33.0,32.5,29.99,ESE,121,0.0,0.0,98,0.00,OVC,,0.23,WeatherDisplay:10.37,2013-12-09 18:43:00,
2013-12-09 13:48:00,33.3,32.8,29.99,ESE,121,0.0,0.0,98,0.00,OVC,,0.23,WeatherDisplay:10.37,2013-12-09 18:48:00,
2013-12-09 13:53:00,33.2,32.7,29.99,ESE,121,0.0,0.0,98,0.00,OVC,,0.23,WeatherDisplay:10.37,2013-12-09 18:53:00,
2013-12-09 13:58:00,33.4,32.9,29.98,ESE,121,0.0,0.0,98,0.00,OVC,,0.23,WeatherDisplay:10.37,2013-12-09 18:58:00,
2013-12-09 14:03:00,33.1,32.6,29.98,ESE,121,0.0,0.0,98,0.00,OVC,,0.23,WeatherDisplay:10.37,2013-12-09 19:03:00,
2013-12-09 14:08:00,33.5,33.0,29.98,ESE,121,0.0,0.0,98,0.00,OVC,,0.23,WeatherDisplay:10.37,2013-12-09 19:08:00,
2013-12-09 14:13:00,33.2,32.7,29.98,ESE,121,0.0,0.0,98,0.00,OVC,,0.23,WeatherDisplay:10.37,2013-12-09 19:13:00,
2013-12-09 14:18:00,33.4,32.9,29.98,ESE,121,0.0,0.0,98,0.00,OVC,,0.23,WeatherDisplay:10.37,2013-12-09 19:18:00,
2013-12-09 14:23:00,33.1,32.6,29.98,ESE,121,0.0,0.0,98,0.00,OVC,,0.23,WeatherDisplay:10.37,2013-12-09 19:23:00,
2013-12-09 14:28:00,33.4,32.9,29.98,ESE,121,0.0,0.0,98,0.00,OVC,,0.23,WeatherDisplay:10.37,2013-12-09 19:28:00,
2013-12-09 14:33:00,33.3,32.8,29.98,ESE,121,0.0,0.0,98,0.00,OVC,,0.23,WeatherDisplay:10.37,2013-12-09 19:33:00,
2013-12-09 14:38:00,33.4,32.9,29.98,ESE,121,0.0,0.0,98,0.00,OVC,,0.23,WeatherDisplay:10.37,2013-12-09 19:38:00,
2013-12-09 14:43:00,33.4,32.9,29.99,ESE,121,0.0,0.0,98,0.00,OVC,,0.23,WeatherDisplay:10.37,2013-12-09 19:43:00,
2013-12-09 14:48:00,33.2,32.7,30.00,WNW,301,4.6,4.6,98,0.00,OVC,,0.23,WeatherDisplay:10.37,2013-12-09 19:48:00,
2013-12-09 14:53:00,33.2,32.7,30.00,NW,312,2.9,2.9,98,0.00,OVC,,0.23,WeatherDisplay:10.37,2013-12-09 19:53:00,
2013-12-09 14:58:00,33.5,33.0,30.00,NW,318,3.5,3.5,98,0.00,OVC,,0.23,WeatherDisplay:10.37,2013-12-09 19:58:00,
2013-12-09 15:03:00,33.4,32.9,30.00,WNW,289,0.0,0.0,98,0.00,OVC,,0.23,WeatherDisplay:10.37,2013-12-09 20:03:00,
2013-12-09 15:08:00,33.3,32.8,30.00,WNW,289,0.0,0.0,98,0.00,OVC,,0.23,WeatherDisplay:10.37,2013-12-09 20:08:00,
2013-12-09 15:13:00,33.4,32.9,30.00,WNW,289,0.0,0.0,98,0.00,OVC,,0.23,WeatherDisplay:10.37,2013-12-09 20:13:00,
2013-12-09 15:18:00,33.5,33.0,30.00,WNW,289,0.0,0.0,98,0.00,OVC,,0.23,WeatherDisplay:10.37,2013-12-09 20:18:00,
2013-12-09 15:23:00,33.2,32.7,30.00,WNW,289,0.0,0.0,98,0.00,OVC,,0.23,WeatherDisplay:10.37,2013-12-09 20:23:00,
2013-12-09 15:28:00,33.4,32.9,30.00,WNW,289,0.0,0.0,98,0.00,OVC,,0.23,WeatherDisplay:10.37,2013-12-09 20:28:00,
2013-12-09 15:33:00,33.6,33.1,29.99,WNW,289,0.0,0.0,98,0.00,OVC,,0.23,WeatherDisplay:10.37,2013-12-09 20:33:00,
2013-12-09 15:38:00,33.2,32.7,29.99,WNW,289,0.0,0.0,98,0.00,OVC,,0.23,WeatherDisplay:10.37,2013-12-09 20:38:00,
2013-12-09 15:43:00,33.3,32.8,29.99,WNW,289,0.0,0.0,98,0.00,OVC,,0.23,WeatherDisplay:10.37,2013-12-09 20:43:00,
2013-12-09 15:48:00,33.2,32.7,29.99,WNW,289,0.0,0.0,98,0.00,OVC,,0.23,WeatherDisplay:10.37,2013-12-09 20:48:00,
2013-12-09 15:53:00,33.4,32.9,29.99,WNW,289,0.0,0.0,98,0.00,OVC,,0.23,WeatherDisplay:10.37,2013-12-09 20:53:00,
2013-12-09 15:58:00,33.4,32.9,29.99,WNW,289,0.0,0.0,98,0.00,OVC,,0.23,WeatherDisplay:10.37,2013-12-09 20:58:00,
2013-12-09 16:03:00,33.4,32.9,29.99,WNW,289,0.0,0.0,98,0.00,OVC,,0.23,WeatherDisplay:10.37,2013-12-09 21:03:00,
2013-12-09 16:08:00,33.3,32.8,29.99,WNW,289,0.0,0.0,98,0.00,OVC,,0.23,WeatherDisplay:10.37,2013-12-09 21:08:00,
2013-12-09 16:13:00,33.4,32.9,29.99,NW,326,2.7,2.7,98,0.00,OVC,,0.23,WeatherDisplay:10.37,2013-12-09 21:13:00,
2013-12-09 16:19:00,33.1,32.6,29.99,NW,326,0.0,0.0,98,0.00,OVC,,0.23,WeatherDisplay:10.37,2013-12-09 21:19:00,
2013-12-09 16:23:00,33.5,33.0,29.99,NW,326,0.0,0.0,98,0.00,OVC,,0.23,WeatherDisplay:10.37,2013-12-09 21:23:00,
2013-12-09 16:28:00,33.4,32.9,29.98,WSW,251,0.0,0.0,98,0.00,OVC,,0.23,WeatherDisplay:10.37,2013-12-09 21:28:00,
2013-12-09 16:33:00,33.5,33.0,29.98,WSW,251,0.0,0.0,98,0.00,OVC,,0.23,WeatherDisplay:10.37,2013-12-09 21:33:00,
2013-12-09 16:38:00,33.4,32.9,29.98,WSW,251,0.0,0.0,98,0.00,OVC,,0.23,WeatherDisplay:10.37,2013-12-09 21:38:00,
2013-12-09 16:43:00,33.4,32.9,29.98,WSW,251,0.0,0.0,98,0.00,OVC,,0.23,WeatherDisplay:10.37,2013-12-09 21:43:00,
2013-12-09 16:48:00,33.5,33.0,29.98,WSW,251,0.0,0.0,98,0.00,OVC,,0.23,WeatherDisplay:10.37,2013-12-09 21:48:00,
2013-12-09 16:53:00,33.5,33.0,29.98,WSW,251,0.0,0.0,98,0.00,OVC,,0.23,WeatherDisplay:10.37,2013-12-09 21:53:00,
2013-12-09 16:58:00,33.2,32.7,29.98,WSW,251,0.0,0.0,98,0.00,RA,,0.17,WeatherDisplay:10.37,2013-12-09 21:58:00,
2013-12-09 17:03:00,33.5,33.0,29.99,WSW,251,0.0,0.0,98,0.00,RA,,0.17,WeatherDisplay:10.37,2013-12-09 22:03:00,
2013-12-09 17:08:00,33.4,32.9,29.98,WSW,251,0.0,0.0,98,0.00,OVC,,0.17,WeatherDisplay:10.37,2013-12-09 22:08:00,
2013-12-09 17:13:00,33.4,32.9,29.99,WSW,251,0.0,0.0,98,0.00,OVC,,0.17,WeatherDisplay:10.37,2013-12-09 22:13:00,
2013-12-09 17:19:00,33.2,32.7,29.99,WSW,251,0.0,0.0,98,0.00,OVC,,0.17,WeatherDisplay:10.37,2013-12-09 22:19:00,
2013-12-09 17:24:00,33.4,32.9,29.98,WSW,251,0.0,0.0,98,0.00,OVC,,0.17,WeatherDisplay:10.37,2013-12-09 22:24:00,
2013-12-09 17:29:00,33.3,32.8,29.98,WSW,251,0.0,0.0,98,0.00,OVC,,0.17,WeatherDisplay:10.37,2013-12-09 22:29:00,
2013-12-09 17:34:00,33.4,32.9,29.99,WSW,251,0.0,0.0,98,0.00,OVC,,0.17,WeatherDisplay:10.37,2013-12-09 22:34:00,
2013-12-09 17:39:00,33.3,32.8,29.99,WSW,251,0.0,0.0,98,0.00,OVC,,0.17,WeatherDisplay:10.37,2013-12-09 22:39:00,
2013-12-09 17:44:00,33.1,32.6,29.99,WSW,251,0.0,0.0,98,0.00,OVC,,0.17,WeatherDisplay:10.37,2013-12-09 22:44:00,
2013-12-09 17:49:00,33.4,32.9,29.99,WSW,251,0.0,0.0,98,0.00,OVC,,0.17,WeatherDisplay:10.37,2013-12-09 22:49:00,
2013-12-09 17:54:00,33.3,32.8,29.99,WSW,251,0.0,0.0,98,0.00,OVC,,0.17,WeatherDisplay:10.37,2013-12-09 22:54:00,
2013-12-09 17:59:00,33.4,32.9,29.99,WSW,251,0.0,0.0,98,0.00,OVC,,0.17,WeatherDisplay:10.37,2013-12-09 22:59:00,
2013-12-09 18:04:00,33.3,32.8,29.99,WSW,251,0.0,0.0,98,0.00,OVC,,0.17,WeatherDisplay:10.37,2013-12-09 23:04:00,
2013-12-09 18:09:00,33.2,32.7,29.99,WSW,251,0.0,0.0,98,0.00,OVC,,0.17,WeatherDisplay:10.37,2013-12-09 23:09:00,
2013-12-09 18:14:00,33.1,32.6,29.98,WSW,251,0.0,0.0,98,0.00,OVC,,0.17,WeatherDisplay:10.37,2013-12-09 23:14:00,
2013-12-09 18:19:00,33.4,32.9,29.98,WSW,251,0.0,0.0,98,0.00,OVC,,0.17,WeatherDisplay:10.37,2013-12-09 23:19:00,
2013-12-09 18:24:00,33.4,32.9,29.98,WSW,251,0.0,0.0,98,0.00,OVC,,0.17,WeatherDisplay:10.37,2013-12-09 23:24:00,
2013-12-09 18:29:00,33.5,33.0,29.97,WSW,251,0.0,0.0,98,0.00,OVC,,0.17,WeatherDisplay:10.37,2013-12-09 23:29:00,
2013-12-09 18:34:00,33.4,32.9,29.98,WSW,251,0.0,0.0,98,0.00,OVC,,0.17,WeatherDisplay:10.37,2013-12-09 23:34:00,
2013-12-09 18:39:00,33.2,32.7,29.97,WSW,251,0.0,0.0,98,0.00,OVC,,0.17,WeatherDisplay:10.37,2013-12-09 23:39:00,
2013-12-09 18:44:00,33.6,33.1,29.98,WSW,251,0.0,0.0,98,0.00,OVC,,0.17,WeatherDisplay:10.37,2013-12-09 23:44:00,
2013-12-09 18:49:00,33.3,32.8,29.98,WSW,251,0.0,0.0,98,0.00,OVC,,0.17,WeatherDisplay:10.37,2013-12-09 23:49:00,
2013-12-09 18:54:00,33.5,33.0,29.98,WSW,251,0.0,0.0,98,0.00,OVC,,0.17,WeatherDisplay:10.37,2013-12-09 23:54:00,
2013-12-09 18:59:00,33.2,32.7,29.98,WSW,251,0.0,0.0,98,0.00,OVC,,0.17,WeatherDisplay:10.37,2013-12-09 23:59:00,
2013-12-09 19:04:00,33.4,32.9,29.98,WSW,251,0.0,0.0,98,0.00,OVC,,0.17,WeatherDisplay:10.37,2013-12-10 00:04:00,
2013-12-09 19:09:00,33.0,32.5,29.98,North,0,2.3,2.3,98,0.00,OVC,,0.17,WeatherDisplay:10.37,2013-12-10 00:09:00,
2013-12-09 19:14:00,33.2,32.7,29.98,North,3,1.2,0.0,98,0.00,OVC,,0.17,WeatherDisplay:10.37,2013-12-10 00:14:00,
2013-12-09 19:19:00,33.0,32.5,29.98,NNE,14,2.4,2.4,98,0.00,OVC,,0.17,WeatherDisplay:10.37,2013-12-10 00:19:00,
2013-12-09 19:24:00,32.9,32.4,29.99,West,272,6.5,6.5,98,0.00,OVC,,0.17,WeatherDisplay:10.37,2013-12-10 00:24:00,
2013-12-09 19:29:00,32.8,32.3,29.99,West,268,0.0,0.0,98,0.00,OVC,,0.17,WeatherDisplay:10.37,2013-12-10 00:29:00,
2013-12-09 19:34:00,33.4,32.9,29.99,NW,320,4.6,4.6,98,0.00,OVC,,0.17,WeatherDisplay:10.37,2013-12-10 00:34:00,
2013-12-09 19:39:00,33.3,32.8,29.99,WNW,302,4.6,4.6,98,0.00,OVC,,0.17,WeatherDisplay:10.37,2013-12-10 00:39:00,
2013-12-09 19:44:00,33.0,32.5,29.99,NNW,342,3.5,3.5,98,0.00,OVC,,0.17,WeatherDisplay:10.37,2013-12-10 00:44:00,
2013-12-09 19:49:00,33.2,32.7,29.99,NNW,342,0.0,0.0,98,0.00,OVC,,0.17,WeatherDisplay:10.37,2013-12-10 00:49:00,
2013-12-09 19:54:00,32.9,32.4,30.00,NNE,16,0.0,0.0,98,0.00,OVC,,0.17,WeatherDisplay:10.37,2013-12-10 00:54:00,
2013-12-09 19:59:00,33.0,32.5,30.00,NNE,16,0.0,0.0,98,0.00,OVC,,0.17,WeatherDisplay:10.37,2013-12-10 00:59:00,
2013-12-09 20:04:00,33.1,32.6,29.99,NNE,16,0.0,0.0,98,0.00,SCT,,0.17,WeatherDisplay:10.37,2013-12-10 01:04:00,
2013-12-09 20:09:00,33.0,32.5,29.99,NNE,20,0.0,0.0,98,0.00,SCT,,0.17,WeatherDisplay:10.37,2013-12-10 01:09:00,
2013-12-09 20:14:00,32.7,32.2,29.99,NNE,20,0.0,0.0,98,0.00,SCT,,0.17,WeatherDisplay:10.37,2013-12-10 01:14:00,
2013-12-09 20:19:00,33.0,32.5,29.99,SW,222,3.5,3.5,98,0.00,SCT,,0.17,WeatherDisplay:10.37,2013-12-10 01:19:00,
2013-12-09 20:24:00,33.1,32.6,29.99,SW,222,0.0,0.0,98,0.00,SCT,,0.17,WeatherDisplay:10.37,2013-12-10 01:24:00,
2013-12-09 20:29:00,32.9,32.4,29.99,South,182,0.0,0.0,98,0.00,SCT,,0.17,WeatherDisplay:10.37,2013-12-10 01:29:00,
2013-12-09 20:34:00,33.3,32.8,29.99,South,182,0.0,0.0,98,0.00,SCT,,0.17,WeatherDisplay:10.37,2013-12-10 01:34:00,
2013-12-09 20:39:00,33.3,32.8,29.99,South,182,0.0,0.0,98,0.00,SCT,,0.17,WeatherDisplay:10.37,2013-12-10 01:39:00,
2013-12-09 20:44:00,33.2,32.7,29.99,South,182,0.0,0.0,98,0.00,SCT,,0.17,WeatherDisplay:10.37,2013-12-10 01:44:00,
2013-12-09 20:49:00,33.1,32.6,29.99,SW,216,2.4,2.4,98,0.00,SCT,,0.17,WeatherDisplay:10.37,2013-12-10 01:49:00,
2013-12-09 20:54:00,33.4,32.9,29.99,SW,230,3.5,3.5,98,0.00,SCT,,0.17,WeatherDisplay:10.37,2013-12-10 01:54:00,
2013-12-09 20:59:00,33.1,32.6,29.99,WNW,291,6.9,6.9,98,0.00,SCT,,0.17,WeatherDisplay:10.37,2013-12-10 01:59:00,
2013-12-09 21:04:00,33.4,32.9,29.99,WNW,292,5.8,5.8,98,0.00,CLR,,0.17,WeatherDisplay:10.37,2013-12-10 02:04:00,
2013-12-09 21:09:00,33.4,32.9,29.99,SW,234,6.9,6.9,98,0.00,CLR,,0.17,WeatherDisplay:10.37,2013-12-10 02:09:00,
2013-12-09 21:14:00,33.1,32.6,30.00,WSW,246,0.0,0.0,98,0.00,CLR,,0.17,WeatherDisplay:10.37,2013-12-10 02:14:00,
2013-12-09 21:19:00,33.1,32.6,29.99,WSW,246,0.0,0.0,98,0.00,CLR,,0.17,WeatherDisplay:10.37,2013-12-10 02:19:00,
2013-12-09 21:24:00,32.8,32.3,29.99,NW,304,2.3,0.0,98,0.00,CLR,,0.17,WeatherDisplay:10.37,2013-12-10 02:24:00,
2013-12-09 21:29:00,33.2,32.7,29.99,SW,236,3.7,3.7,98,0.00,CLR,,0.17,WeatherDisplay:10.37,2013-12-10 02:29:00,
2013-12-09 21:34:00,32.9,32.4,29.99,SW,227,0.0,0.0,98,0.00,CLR,,0.17,WeatherDisplay:10.37,2013-12-10 02:34:00,
2013-12-09 21:39:00,32.8,32.3,29.99,West,271,4.7,4.7,98,0.00,CLR,,0.17,WeatherDisplay:10.37,2013-12-10 02:39:00,
2013-12-09 21:44:00,33.0,32.5,29.99,WSW,244,5.9,5.9,98,0.00,CLR,,0.17,WeatherDisplay:10.37,2013-12-10 02:44:00,
2013-12-09 21:49:00,33.2,32.7,29.99,WSW,239,0.0,0.0,98,0.00,CLR,,0.17,WeatherDisplay:10.37,2013-12-10 02:49:00,
2013-12-09 21:54:00,33.0,32.5,29.99,West,264,3.5,3.5,98,0.00,CLR,,0.17,WeatherDisplay:10.37,2013-12-10 02:54:00,
2013-12-09 21:59:00,33.3,32.8,30.00,WSW,258,5.4,5.4,98,0.00,CLR,,0.17,WeatherDisplay:10.37,2013-12-10 02:59:00,
2013-12-09 22:04:00,33.5,33.0,29.99,NNW,332,2.9,2.9,98,0.00,CLR,,0.17,WeatherDisplay:10.37,2013-12-10 03:04:00,
2013-12-09 22:09:00,33.4,32.9,29.99,West,280,3.8,3.8,98,0.00,CLR,,0.17,WeatherDisplay:10.37,2013-12-10 03:09:00,
2013-12-09 22:14:00,33.6,33.1,29.99,West,280,0.0,0.0,98,0.00,CLR,,0.17,WeatherDisplay:10.37,2013-12-10 03:14:00,
2013-12-09 22:19:00,33.3,32.8,29.99,West,280,0.0,0.0,98,0.00,CLR,,0.17,WeatherDisplay:10.37,2013-12-10 03:19:00,
2013-12-09 22:24:00,33.4,32.9,29.99,NW,312,3.5,3.5,98,0.00,CLR,,0.17,WeatherDisplay:10.37,2013-12-10 03:24:00,
2013-12-09 22:29:00,33.9,33.4,29.99,NW,312,0.0,0.0,98,0.00,CLR,,0.17,WeatherDisplay:10.37,2013-12-10 03:29:00,
2013-12-09 22:34:00,33.7,33.2,29.99,NW,312,0.0,0.0,98,0.00,CLR,,0.17,WeatherDisplay:10.37,2013-12-10 03:34:00,
2013-12-09 22:39:00,33.7,33.2,29.99,NW,312,0.0,0.0,98,0.00,CLR,,0.17,WeatherDisplay:10.37,2013-12-10 03:39:00,
2013-12-09 22:44:00,33.7,33.2,29.99,NW,312,0.0,0.0,98,0.00,CLR,,0.17,WeatherDisplay:10.37,2013-12-10 03:44:00,
2013-12-09 22:49:00,33.6,33.1,29.99,SE,136,0.0,0.0,98,0.00,CLR,,0.17,WeatherDisplay:10.37,2013-12-10 03:49:00,
2013-12-09 22:54:00,33.6,33.1,29.99,SE,136,0.0,0.0,98,0.00,CLR,,0.17,WeatherDisplay:10.37,2013-12-10 03:54:00,
2013-12-09 22:59:00,33.1,32.6,29.99,NW,313,1.4,1.4,98,0.00,CLR,,0.17,WeatherDisplay:10.37,2013-12-10 03:59:00,
2013-12-09 23:04:00,33.6,33.1,29.99,NW,313,0.0,0.0,98,0.00,CLR,,0.17,WeatherDisplay:10.37,2013-12-10 04:04:00,
2013-12-09 23:09:00,33.7,33.2,29.99,NW,313,0.0,0.0,98,0.00,CLR,,0.17,WeatherDisplay:10.37,2013-12-10 04:09:00,
2013-12-09 23:14:00,33.5,33.0,29.99,ENE,78,0.0,0.0,98,0.00,CLR,,0.17,WeatherDisplay:10.37,2013-12-10 04:14:00,
2013-12-09 23:19:00,33.5,33.0,29.99,ENE,78,0.0,0.0,98,0.00,CLR,,0.17,WeatherDisplay:10.37,2013-12-10 04:19:00,
2013-12-09 23:24:00,33.3,32.8,29.99,ENE,78,0.0,0.0,98,0.00,CLR,,0.17,WeatherDisplay:10.37,2013-12-10 04:24:00,
2013-12-09 23:29:00,33.7,33.2,29.99,NW,308,0.0,0.0,98,0.00,CLR,,0.17,WeatherDisplay:10.37,2013-12-10 04:29:00,
2013-12-09 23:34:00,33.7,33.2,30.00,NNW,343,0.0,0.0,98,0.00,CLR,,0.17,WeatherDisplay:10.37,2013-12-10 04:34:00,
2013-12-09 23:39:00,33.4,32.9,30.00,NNW,343,0.0,0.0,98,0.00,CLR,,0.17,WeatherDisplay:10.37,2013-12-10 04:39:00,
2013-12-09 23:44:00,33.6,32.9,30.00,NW,315,0.0,0.0,97,0.00,CLR,,0.17,WeatherDisplay:10.37,2013-12-10 04:44:00,
2013-12-09 23:49:00,33.3,32.6,29.99,NNE,28,4.6,4.6,97,0.00,CLR,,0.17,WeatherDisplay:10.37,2013-12-10 04:49:00,
2013-12-09 23:54:00,33.8,33.1,29.99,West,278,0.0,0.0,97,0.00,CLR,,0.17,WeatherDisplay:10.37,2013-12-10 04:54:00,
2013-12-09 23:59:00,33.7,33.0,29.99,East,90,0.0,0.0,97,0.00,CLR,,0.17,WeatherDisplay:10.37,2013-12-10 04:59:00,